sensor_id;sensor_type;location;lat;lon;timestamp;P1;durP1;ratioP1;P2;durP2;ratioP2
19436;SDS011;9854;50.968;4.168;2024-01-15T00:01:26;24.73;;;14.80;;
19436;SDS011;9854;50.968;4.168;2024-01-15T00:03:52;27.03;;;15.23;;
19436;SDS011;9854;50.968;4.168;2024-01-15T00:06:18;26.33;;;15.10;;
19436;SDS011;9854;50.968;4.168;2024-01-15T00:08:43;28.63;;;15.53;;
19436;SDS011;9854;50.968;4.168;2024-01-15T00:11:11;23.77;;;14.87;;
19436;SDS011;9854;50.968;4.168;2024-01-15T00:13:37;22.63;;;14.40;;
19436;SDS011;9854;50.968;4.168;2024-01-15T00:16:03;26.70;;;14.03;;
19436;SDS011;9854;50.968;4.168;2024-01-15T00:18:29;28.90;;;13.23;;
19436;SDS011;9854;50.968;4.168;2024-01-15T00:20:55;20.60;;;11.50;;
19436;SDS011;9854;50.968;4.168;2024-01-15T00:23:22;17.27;;;11.60;;
19436;SDS011;9854;50.968;4.168;2024-01-15T00:25:50;15.03;;;10.07;;
19436;SDS011;9854;50.968;4.168;2024-01-15T00:28:16;14.50;;;8.97;;
19436;SDS011;9854;50.968;4.168;2024-01-15T00:30:42;11.67;;;7.70;;
19436;SDS011;9854;50.968;4.168;2024-01-15T00:33:08;9.63;;;6.20;;
19436;SDS011;9854;50.968;4.168;2024-01-15T00:35:33;8.93;;;5.57;;
19436;SDS011;9854;50.968;4.168;2024-01-15T00:37:59;5.90;;;4.00;;
19436;SDS011;9854;50.968;4.168;2024-01-15T00:40:25;11.80;;;5.07;;
19436;SDS011;9854;50.968;4.168;2024-01-15T00:42:50;6.33;;;4.57;;
19436;SDS011;9854;50.968;4.168;2024-01-15T00:45:21;8.83;;;4.57;;
19436;SDS011;9854;50.968;4.168;2024-01-15T00:47:49;8.00;;;4.37;;
19436;SDS011;9854;50.968;4.168;2024-01-15T00:50:14;6.20;;;4.07;;
19436;SDS011;9854;50.968;4.168;2024-01-15T00:52:40;9.63;;;5.20;;
19436;SDS011;9854;50.968;4.168;2024-01-15T00:55:06;5.80;;;5.03;;
19436;SDS011;9854;50.968;4.168;2024-01-15T00:57:32;9.23;;;4.77;;
19436;SDS011;9854;50.968;4.168;2024-01-15T01:00:00;7.77;;;4.70;;
19436;SDS011;9854;50.968;4.168;2024-01-15T01:02:26;6.83;;;4.57;;
19436;SDS011;9854;50.968;4.168;2024-01-15T01:04:52;10.47;;;4.20;;
19436;SDS011;9854;50.968;4.168;2024-01-15T01:07:20;8.33;;;4.60;;
19436;SDS011;9854;50.968;4.168;2024-01-15T01:09:45;5.60;;;4.20;;
19436;SDS011;9854;50.968;4.168;2024-01-15T01:12:13;7.63;;;4.40;;
19436;SDS011;9854;50.968;4.168;2024-01-15T01:14:38;5.27;;;4.40;;
19436;SDS011;9854;50.968;4.168;2024-01-15T01:17:04;6.20;;;4.00;;
19436;SDS011;9854;50.968;4.168;2024-01-15T01:19:32;5.17;;;4.30;;
19436;SDS011;9854;50.968;4.168;2024-01-15T01:21:58;9.10;;;4.43;;
19436;SDS011;9854;50.968;4.168;2024-01-15T01:24:23;5.40;;;4.10;;
19436;SDS011;9854;50.968;4.168;2024-01-15T01:26:49;7.43;;;4.50;;
19436;SDS011;9854;50.968;4.168;2024-01-15T01:29:15;9.93;;;3.83;;
19436;SDS011;9854;50.968;4.168;2024-01-15T01:31:43;5.07;;;3.77;;
19436;SDS011;9854;50.968;4.168;2024-01-15T01:34:10;6.10;;;3.90;;
19436;SDS011;9854;50.968;4.168;2024-01-15T01:36:36;6.97;;;3.80;;
19436;SDS011;9854;50.968;4.168;2024-01-15T01:39:01;4.93;;;3.97;;
19436;SDS011;9854;50.968;4.168;2024-01-15T01:41:27;5.20;;;3.87;;
19436;SDS011;9854;50.968;4.168;2024-01-15T01:43:53;10.00;;;4.20;;
19436;SDS011;9854;50.968;4.168;2024-01-15T01:46:20;7.53;;;4.70;;
19436;SDS011;9854;50.968;4.168;2024-01-15T01:48:46;9.47;;;4.57;;
19436;SDS011;9854;50.968;4.168;2024-01-15T01:51:14;10.10;;;4.67;;
19436;SDS011;9854;50.968;4.168;2024-01-15T01:53:43;8.50;;;4.60;;
19436;SDS011;9854;50.968;4.168;2024-01-15T01:56:12;7.53;;;4.57;;
19436;SDS011;9854;50.968;4.168;2024-01-15T01:58:39;5.63;;;4.20;;
19436;SDS011;9854;50.968;4.168;2024-01-15T02:01:04;9.73;;;4.13;;
19436;SDS011;9854;50.968;4.168;2024-01-15T02:03:31;6.73;;;3.90;;
19436;SDS011;9854;50.968;4.168;2024-01-15T02:05:57;10.97;;;4.03;;
19436;SDS011;9854;50.968;4.168;2024-01-15T02:08:24;10.53;;;4.30;;
19436;SDS011;9854;50.968;4.168;2024-01-15T02:10:50;5.17;;;4.07;;
19436;SDS011;9854;50.968;4.168;2024-01-15T02:13:17;8.00;;;4.70;;
19436;SDS011;9854;50.968;4.168;2024-01-15T02:15:45;9.20;;;3.90;;
19436;SDS011;9854;50.968;4.168;2024-01-15T02:18:11;8.33;;;4.50;;
19436;SDS011;9854;50.968;4.168;2024-01-15T02:20:37;9.73;;;4.77;;
19436;SDS011;9854;50.968;4.168;2024-01-15T02:23:12;8.40;;;4.47;;
19436;SDS011;9854;50.968;4.168;2024-01-15T02:25:42;10.07;;;4.60;;
19436;SDS011;9854;50.968;4.168;2024-01-15T02:28:10;6.40;;;4.27;;
19436;SDS011;9854;50.968;4.168;2024-01-15T02:30:37;8.03;;;4.67;;
19436;SDS011;9854;50.968;4.168;2024-01-15T02:33:07;7.87;;;4.40;;
19436;SDS011;9854;50.968;4.168;2024-01-15T02:35:36;9.83;;;4.90;;
19436;SDS011;9854;50.968;4.168;2024-01-15T02:38:04;7.40;;;3.90;;
19436;SDS011;9854;50.968;4.168;2024-01-15T02:40:30;6.07;;;4.20;;
19436;SDS011;9854;50.968;4.168;2024-01-15T02:42:56;14.23;;;4.50;;
19436;SDS011;9854;50.968;4.168;2024-01-15T02:45:22;8.43;;;4.47;;
19436;SDS011;9854;50.968;4.168;2024-01-15T02:47:48;10.63;;;4.60;;
19436;SDS011;9854;50.968;4.168;2024-01-15T02:50:16;7.63;;;4.40;;
19436;SDS011;9854;50.968;4.168;2024-01-15T02:52:41;5.13;;;3.77;;
19436;SDS011;9854;50.968;4.168;2024-01-15T02:55:07;14.80;;;4.43;;
19436;SDS011;9854;50.968;4.168;2024-01-15T02:57:35;9.90;;;4.40;;
19436;SDS011;9854;50.968;4.168;2024-01-15T03:00:01;5.43;;;4.00;;
19436;SDS011;9854;50.968;4.168;2024-01-15T03:02:28;6.87;;;4.07;;
19436;SDS011;9854;50.968;4.168;2024-01-15T03:04:56;7.53;;;4.17;;
19436;SDS011;9854;50.968;4.168;2024-01-15T03:07:28;5.53;;;3.83;;
19436;SDS011;9854;50.968;4.168;2024-01-15T03:09:53;10.13;;;4.13;;
19436;SDS011;9854;50.968;4.168;2024-01-15T03:12:19;6.37;;;4.17;;
19436;SDS011;9854;50.968;4.168;2024-01-15T03:14:45;7.90;;;3.60;;
19436;SDS011;9854;50.968;4.168;2024-01-15T03:17:10;9.30;;;4.10;;
19436;SDS011;9854;50.968;4.168;2024-01-15T03:19:38;9.20;;;4.20;;
19436;SDS011;9854;50.968;4.168;2024-01-15T03:22:04;9.53;;;4.07;;
19436;SDS011;9854;50.968;4.168;2024-01-15T03:24:31;7.57;;;3.80;;
19436;SDS011;9854;50.968;4.168;2024-01-15T03:26:59;8.33;;;4.13;;
19436;SDS011;9854;50.968;4.168;2024-01-15T03:29:27;7.13;;;4.50;;
19436;SDS011;9854;50.968;4.168;2024-01-15T03:31:53;8.83;;;3.67;;
19436;SDS011;9854;50.968;4.168;2024-01-15T03:34:19;5.77;;;3.60;;
19436;SDS011;9854;50.968;4.168;2024-01-15T03:36:45;8.17;;;4.10;;
19436;SDS011;9854;50.968;4.168;2024-01-15T03:39:13;8.27;;;4.67;;
19436;SDS011;9854;50.968;4.168;2024-01-15T03:41:38;6.83;;;4.47;;
19436;SDS011;9854;50.968;4.168;2024-01-15T03:44:04;9.47;;;4.30;;
19436;SDS011;9854;50.968;4.168;2024-01-15T03:46:30;7.03;;;4.10;;
19436;SDS011;9854;50.968;4.168;2024-01-15T03:48:55;6.60;;;4.10;;
19436;SDS011;9854;50.968;4.168;2024-01-15T03:51:21;12.57;;;4.50;;
19436;SDS011;9854;50.968;4.168;2024-01-15T03:53:48;6.50;;;4.47;;
19436;SDS011;9854;50.968;4.168;2024-01-15T03:56:13;7.87;;;4.20;;
19436;SDS011;9854;50.968;4.168;2024-01-15T03:58:39;9.53;;;4.23;;
19436;SDS011;9854;50.968;4.168;2024-01-15T04:01:07;7.73;;;4.70;;
19436;SDS011;9854;50.968;4.168;2024-01-15T04:03:36;12.53;;;4.80;;
19436;SDS011;9854;50.968;4.168;2024-01-15T04:06:02;9.33;;;4.57;;
19436;SDS011;9854;50.968;4.168;2024-01-15T04:08:29;9.53;;;4.47;;
19436;SDS011;9854;50.968;4.168;2024-01-15T04:10:56;4.73;;;4.20;;
19436;SDS011;9854;50.968;4.168;2024-01-15T04:13:22;9.53;;;5.07;;
19436;SDS011;9854;50.968;4.168;2024-01-15T04:15:48;10.20;;;4.60;;
19436;SDS011;9854;50.968;4.168;2024-01-15T04:18:15;6.87;;;4.17;;
19436;SDS011;9854;50.968;4.168;2024-01-15T04:20:44;6.27;;;4.50;;
19436;SDS011;9854;50.968;4.168;2024-01-15T04:23:09;6.50;;;4.40;;
19436;SDS011;9854;50.968;4.168;2024-01-15T04:25:35;5.77;;;3.97;;
19436;SDS011;9854;50.968;4.168;2024-01-15T04:28:01;11.50;;;4.60;;
19436;SDS011;9854;50.968;4.168;2024-01-15T04:30:29;8.87;;;3.97;;
19436;SDS011;9854;50.968;4.168;2024-01-15T04:32:55;7.83;;;3.90;;
19436;SDS011;9854;50.968;4.168;2024-01-15T04:35:23;13.37;;;4.47;;
19436;SDS011;9854;50.968;4.168;2024-01-15T04:37:50;7.23;;;3.70;;
19436;SDS011;9854;50.968;4.168;2024-01-15T04:40:17;7.73;;;3.50;;
19436;SDS011;9854;50.968;4.168;2024-01-15T04:42:42;8.73;;;3.90;;
19436;SDS011;9854;50.968;4.168;2024-01-15T04:45:10;10.80;;;3.80;;
19436;SDS011;9854;50.968;4.168;2024-01-15T04:47:36;6.70;;;2.83;;
19436;SDS011;9854;50.968;4.168;2024-01-15T04:50:02;11.70;;;2.80;;
19436;SDS011;9854;50.968;4.168;2024-01-15T04:52:29;7.13;;;2.67;;
19436;SDS011;9854;50.968;4.168;2024-01-15T04:54:54;6.90;;;2.37;;
19436;SDS011;9854;50.968;4.168;2024-01-15T04:57:20;7.27;;;2.33;;
19436;SDS011;9854;50.968;4.168;2024-01-15T04:59:46;7.03;;;2.60;;
19436;SDS011;9854;50.968;4.168;2024-01-15T05:02:14;9.50;;;2.90;;
19436;SDS011;9854;50.968;4.168;2024-01-15T05:04:39;6.13;;;1.93;;
19436;SDS011;9854;50.968;4.168;2024-01-15T05:07:05;8.70;;;2.40;;
19436;SDS011;9854;50.968;4.168;2024-01-15T05:09:31;5.10;;;2.10;;
19436;SDS011;9854;50.968;4.168;2024-01-15T05:11:58;9.43;;;2.30;;
19436;SDS011;9854;50.968;4.168;2024-01-15T05:14:26;5.45;;;2.08;;
19436;SDS011;9854;50.968;4.168;2024-01-15T05:16:52;7.10;;;2.00;;
19436;SDS011;9854;50.968;4.168;2024-01-15T05:19:18;6.60;;;2.20;;
19436;SDS011;9854;50.968;4.168;2024-01-15T05:21:48;5.95;;;2.08;;
19436;SDS011;9854;50.968;4.168;2024-01-15T05:24:14;7.83;;;2.30;;
19436;SDS011;9854;50.968;4.168;2024-01-15T05:26:39;8.63;;;2.03;;
19436;SDS011;9854;50.968;4.168;2024-01-15T05:29:05;8.17;;;2.30;;
19436;SDS011;9854;50.968;4.168;2024-01-15T05:31:31;10.63;;;2.30;;
19436;SDS011;9854;50.968;4.168;2024-01-15T05:33:58;7.70;;;2.20;;
19436;SDS011;9854;50.968;4.168;2024-01-15T05:36:24;7.93;;;2.30;;
19436;SDS011;9854;50.968;4.168;2024-01-15T05:38:50;3.53;;;2.00;;
19436;SDS011;9854;50.968;4.168;2024-01-15T05:41:15;8.50;;;1.93;;
19436;SDS011;9854;50.968;4.168;2024-01-15T05:43:43;4.43;;;1.97;;
19436;SDS011;9854;50.968;4.168;2024-01-15T05:46:09;4.77;;;2.10;;
19436;SDS011;9854;50.968;4.168;2024-01-15T05:48:35;5.53;;;2.40;;
19436;SDS011;9854;50.968;4.168;2024-01-15T05:51:00;4.97;;;2.50;;
19436;SDS011;9854;50.968;4.168;2024-01-15T05:53:27;5.07;;;1.83;;
19436;SDS011;9854;50.968;4.168;2024-01-15T05:55:52;8.83;;;2.10;;
19436;SDS011;9854;50.968;4.168;2024-01-15T05:58:19;10.40;;;2.47;;
19436;SDS011;9854;50.968;4.168;2024-01-15T06:00:44;11.27;;;2.47;;
19436;SDS011;9854;50.968;4.168;2024-01-15T06:03:11;9.13;;;2.40;;
19436;SDS011;9854;50.968;4.168;2024-01-15T06:05:39;9.73;;;2.20;;
19436;SDS011;9854;50.968;4.168;2024-01-15T06:08:05;9.93;;;2.60;;
19436;SDS011;9854;50.968;4.168;2024-01-15T06:10:30;9.27;;;2.50;;
19436;SDS011;9854;50.968;4.168;2024-01-15T06:12:56;7.90;;;2.07;;
19436;SDS011;9854;50.968;4.168;2024-01-15T06:15:22;6.27;;;2.23;;
19436;SDS011;9854;50.968;4.168;2024-01-15T06:17:49;7.60;;;2.53;;
19436;SDS011;9854;50.968;4.168;2024-01-15T06:20:17;7.03;;;2.50;;
19436;SDS011;9854;50.968;4.168;2024-01-15T06:22:43;7.80;;;2.50;;
19436;SDS011;9854;50.968;4.168;2024-01-15T06:25:10;6.90;;;2.60;;
19436;SDS011;9854;50.968;4.168;2024-01-15T06:27:36;10.48;;;3.20;;
19436;SDS011;9854;50.968;4.168;2024-01-15T06:30:02;9.53;;;3.20;;
19436;SDS011;9854;50.968;4.168;2024-01-15T06:32:28;7.60;;;2.90;;
19436;SDS011;9854;50.968;4.168;2024-01-15T06:34:53;10.30;;;3.13;;
19436;SDS011;9854;50.968;4.168;2024-01-15T06:37:19;11.20;;;3.40;;
19436;SDS011;9854;50.968;4.168;2024-01-15T06:39:45;8.97;;;2.87;;
19436;SDS011;9854;50.968;4.168;2024-01-15T06:42:11;8.10;;;3.10;;
19436;SDS011;9854;50.968;4.168;2024-01-15T06:44:39;12.37;;;3.00;;
19436;SDS011;9854;50.968;4.168;2024-01-15T06:47:05;9.63;;;2.90;;
19436;SDS011;9854;50.968;4.168;2024-01-15T06:49:33;8.87;;;3.00;;
19436;SDS011;9854;50.968;4.168;2024-01-15T06:52:01;10.60;;;2.87;;
19436;SDS011;9854;50.968;4.168;2024-01-15T06:54:27;13.27;;;2.87;;
19436;SDS011;9854;50.968;4.168;2024-01-15T06:56:52;14.23;;;3.00;;
19436;SDS011;9854;50.968;4.168;2024-01-15T06:59:20;10.07;;;3.07;;
19436;SDS011;9854;50.968;4.168;2024-01-15T07:01:48;9.73;;;3.03;;
19436;SDS011;9854;50.968;4.168;2024-01-15T07:04:13;14.87;;;3.00;;
19436;SDS011;9854;50.968;4.168;2024-01-15T07:06:39;13.10;;;2.70;;
19436;SDS011;9854;50.968;4.168;2024-01-15T07:09:07;11.50;;;2.77;;
19436;SDS011;9854;50.968;4.168;2024-01-15T07:11:34;10.60;;;2.73;;
19436;SDS011;9854;50.968;4.168;2024-01-15T07:13:59;9.10;;;2.47;;
19436;SDS011;9854;50.968;4.168;2024-01-15T07:16:25;12.83;;;2.93;;
19436;SDS011;9854;50.968;4.168;2024-01-15T07:18:51;9.73;;;2.50;;
19436;SDS011;9854;50.968;4.168;2024-01-15T07:21:16;17.37;;;3.13;;
19436;SDS011;9854;50.968;4.168;2024-01-15T07:23:44;13.57;;;3.10;;
19436;SDS011;9854;50.968;4.168;2024-01-15T07:26:12;7.50;;;2.50;;
19436;SDS011;9854;50.968;4.168;2024-01-15T07:28:43;17.10;;;3.30;;
19436;SDS011;9854;50.968;4.168;2024-01-15T07:31:11;12.20;;;2.77;;
19436;SDS011;9854;50.968;4.168;2024-01-15T07:33:37;11.60;;;2.43;;
19436;SDS011;9854;50.968;4.168;2024-01-15T07:36:02;9.10;;;2.50;;
19436;SDS011;9854;50.968;4.168;2024-01-15T07:38:28;10.27;;;2.77;;
19436;SDS011;9854;50.968;4.168;2024-01-15T07:40:56;14.80;;;2.40;;
19436;SDS011;9854;50.968;4.168;2024-01-15T07:43:22;12.85;;;3.10;;
19436;SDS011;9854;50.968;4.168;2024-01-15T07:45:50;11.53;;;3.07;;
19436;SDS011;9854;50.968;4.168;2024-01-15T07:48:15;12.23;;;3.20;;
19436;SDS011;9854;50.968;4.168;2024-01-15T07:50:41;9.10;;;2.50;;
19436;SDS011;9854;50.968;4.168;2024-01-15T07:53:07;13.67;;;3.10;;
19436;SDS011;9854;50.968;4.168;2024-01-15T07:55:32;7.50;;;2.97;;
19436;SDS011;9854;50.968;4.168;2024-01-15T07:57:58;11.77;;;2.63;;
19436;SDS011;9854;50.968;4.168;2024-01-15T08:00:26;8.50;;;3.00;;
19436;SDS011;9854;50.968;4.168;2024-01-15T08:02:52;6.93;;;2.60;;
19436;SDS011;9854;50.968;4.168;2024-01-15T08:05:18;10.73;;;3.10;;
19436;SDS011;9854;50.968;4.168;2024-01-15T08:07:44;12.27;;;2.90;;
19436;SDS011;9854;50.968;4.168;2024-01-15T08:10:09;11.07;;;3.17;;
19436;SDS011;9854;50.968;4.168;2024-01-15T08:12:35;10.67;;;2.90;;
19436;SDS011;9854;50.968;4.168;2024-01-15T08:15:01;5.17;;;2.70;;
19436;SDS011;9854;50.968;4.168;2024-01-15T08:17:26;11.90;;;2.67;;
19436;SDS011;9854;50.968;4.168;2024-01-15T08:19:53;10.10;;;2.63;;
19436;SDS011;9854;50.968;4.168;2024-01-15T08:22:20;10.40;;;2.87;;
19436;SDS011;9854;50.968;4.168;2024-01-15T08:24:45;8.33;;;2.30;;
19436;SDS011;9854;50.968;4.168;2024-01-15T08:27:11;10.83;;;2.87;;
19436;SDS011;9854;50.968;4.168;2024-01-15T08:29:36;7.13;;;3.00;;
19436;SDS011;9854;50.968;4.168;2024-01-15T08:32:02;11.97;;;3.07;;
19436;SDS011;9854;50.968;4.168;2024-01-15T08:34:30;11.10;;;3.07;;
19436;SDS011;9854;50.968;4.168;2024-01-15T08:36:56;12.67;;;2.70;;
19436;SDS011;9854;50.968;4.168;2024-01-15T08:39:22;11.07;;;2.67;;
19436;SDS011;9854;50.968;4.168;2024-01-15T08:41:47;9.80;;;3.10;;
19436;SDS011;9854;50.968;4.168;2024-01-15T08:44:13;19.13;;;3.77;;
19436;SDS011;9854;50.968;4.168;2024-01-15T08:46:39;10.23;;;2.50;;
19436;SDS011;9854;50.968;4.168;2024-01-15T08:49:04;17.70;;;3.00;;
19436;SDS011;9854;50.968;4.168;2024-01-15T08:51:33;12.90;;;2.90;;
19436;SDS011;9854;50.968;4.168;2024-01-15T08:53:58;10.70;;;3.57;;
19436;SDS011;9854;50.968;4.168;2024-01-15T08:56:24;12.30;;;2.60;;
19436;SDS011;9854;50.968;4.168;2024-01-15T08:58:49;10.77;;;3.17;;
19436;SDS011;9854;50.968;4.168;2024-01-15T09:01:17;14.07;;;2.63;;
19436;SDS011;9854;50.968;4.168;2024-01-15T09:03:44;11.33;;;2.90;;
19436;SDS011;9854;50.968;4.168;2024-01-15T09:06:11;11.47;;;2.93;;
19436;SDS011;9854;50.968;4.168;2024-01-15T09:08:37;9.07;;;2.70;;
19436;SDS011;9854;50.968;4.168;2024-01-15T09:11:03;12.13;;;2.70;;
19436;SDS011;9854;50.968;4.168;2024-01-15T09:13:29;8.80;;;2.93;;
19436;SDS011;9854;50.968;4.168;2024-01-15T09:15:59;10.13;;;3.03;;
19436;SDS011;9854;50.968;4.168;2024-01-15T09:18:26;5.70;;;2.90;;
19436;SDS011;9854;50.968;4.168;2024-01-15T09:20:54;13.23;;;3.27;;
19436;SDS011;9854;50.968;4.168;2024-01-15T09:23:20;12.43;;;2.90;;
19436;SDS011;9854;50.968;4.168;2024-01-15T09:25:48;15.97;;;2.97;;
19436;SDS011;9854;50.968;4.168;2024-01-15T09:28:17;17.83;;;2.90;;
19436;SDS011;9854;50.968;4.168;2024-01-15T09:30:43;8.43;;;3.00;;
19436;SDS011;9854;50.968;4.168;2024-01-15T09:33:10;7.20;;;2.77;;
19436;SDS011;9854;50.968;4.168;2024-01-15T09:35:36;10.93;;;3.27;;
19436;SDS011;9854;50.968;4.168;2024-01-15T09:38:01;10.57;;;3.03;;
19436;SDS011;9854;50.968;4.168;2024-01-15T09:40:28;12.10;;;2.40;;
19436;SDS011;9854;50.968;4.168;2024-01-15T09:42:58;13.87;;;2.17;;
19436;SDS011;9854;50.968;4.168;2024-01-15T09:45:23;6.93;;;2.57;;
19436;SDS011;9854;50.968;4.168;2024-01-15T09:47:49;9.30;;;2.00;;
19436;SDS011;9854;50.968;4.168;2024-01-15T09:50:15;6.30;;;2.10;;
19436;SDS011;9854;50.968;4.168;2024-01-15T09:52:41;12.23;;;2.63;;
19436;SDS011;9854;50.968;4.168;2024-01-15T09:55:08;11.10;;;2.40;;
19436;SDS011;9854;50.968;4.168;2024-01-15T09:57:34;11.10;;;2.40;;
19436;SDS011;9854;50.968;4.168;2024-01-15T10:00:02;9.47;;;2.20;;
19436;SDS011;9854;50.968;4.168;2024-01-15T10:02:29;11.77;;;2.70;;
19436;SDS011;9854;50.968;4.168;2024-01-15T10:04:55;13.23;;;2.73;;
19436;SDS011;9854;50.968;4.168;2024-01-15T10:07:25;7.30;;;1.97;;
19436;SDS011;9854;50.968;4.168;2024-01-15T10:09:53;10.17;;;2.10;;
19436;SDS011;9854;50.968;4.168;2024-01-15T10:12:18;7.10;;;2.10;;
19436;SDS011;9854;50.968;4.168;2024-01-15T10:14:51;16.47;;;2.87;;
19436;SDS011;9854;50.968;4.168;2024-01-15T10:17:20;10.80;;;2.30;;
19436;SDS011;9854;50.968;4.168;2024-01-15T10:19:46;8.43;;;2.30;;
19436;SDS011;9854;50.968;4.168;2024-01-15T10:22:17;7.70;;;2.70;;
19436;SDS011;9854;50.968;4.168;2024-01-15T10:24:45;10.23;;;2.97;;
19436;SDS011;9854;50.968;4.168;2024-01-15T10:27:13;4.83;;;2.23;;
19436;SDS011;9854;50.968;4.168;2024-01-15T10:29:41;8.10;;;2.53;;
19436;SDS011;9854;50.968;4.168;2024-01-15T10:32:07;9.23;;;2.47;;
19436;SDS011;9854;50.968;4.168;2024-01-15T10:34:39;8.73;;;2.50;;
19436;SDS011;9854;50.968;4.168;2024-01-15T10:37:09;13.17;;;2.97;;
19436;SDS011;9854;50.968;4.168;2024-01-15T10:39:40;9.03;;;2.70;;
19436;SDS011;9854;50.968;4.168;2024-01-15T10:42:06;6.40;;;2.30;;
19436;SDS011;9854;50.968;4.168;2024-01-15T10:44:36;10.73;;;2.07;;
19436;SDS011;9854;50.968;4.168;2024-01-15T10:47:04;8.00;;;2.00;;
19436;SDS011;9854;50.968;4.168;2024-01-15T10:49:30;7.90;;;2.10;;
19436;SDS011;9854;50.968;4.168;2024-01-15T10:51:58;6.63;;;2.10;;
19436;SDS011;9854;50.968;4.168;2024-01-15T10:54:25;12.60;;;2.33;;
19436;SDS011;9854;50.968;4.168;2024-01-15T10:56:55;11.03;;;2.97;;
19436;SDS011;9854;50.968;4.168;2024-01-15T10:59:21;8.10;;;3.53;;
19436;SDS011;9854;50.968;4.168;2024-01-15T11:01:48;14.90;;;2.70;;
19436;SDS011;9854;50.968;4.168;2024-01-15T11:04:14;14.83;;;3.20;;
19436;SDS011;9854;50.968;4.168;2024-01-15T11:06:45;11.60;;;2.37;;
19436;SDS011;9854;50.968;4.168;2024-01-15T11:09:13;14.93;;;3.10;;
19436;SDS011;9854;50.968;4.168;2024-01-15T11:11:46;12.73;;;2.90;;
19436;SDS011;9854;50.968;4.168;2024-01-15T11:17:00;7.33;;;2.17;;
19436;SDS011;9854;50.968;4.168;2024-01-15T11:22:09;7.50;;;2.53;;
19436;SDS011;9854;50.968;4.168;2024-01-15T11:24:55;11.10;;;2.40;;
19436;SDS011;9854;50.968;4.168;2024-01-15T11:27:43;8.00;;;2.40;;
19436;SDS011;9854;50.968;4.168;2024-01-15T11:30:12;7.03;;;2.40;;
19436;SDS011;9854;50.968;4.168;2024-01-15T11:32:38;6.70;;;2.87;;
19436;SDS011;9854;50.968;4.168;2024-01-15T11:35:06;9.57;;;2.53;;
19436;SDS011;9854;50.968;4.168;2024-01-15T11:38:16;9.57;;;3.03;;
19436;SDS011;9854;50.968;4.168;2024-01-15T11:42:58;7.27;;;2.10;;
19436;SDS011;9854;50.968;4.168;2024-01-15T11:45:24;8.13;;;3.10;;
19436;SDS011;9854;50.968;4.168;2024-01-15T11:50:32;10.70;;;2.50;;
19436;SDS011;9854;50.968;4.168;2024-01-15T11:53:05;7.47;;;3.00;;
19436;SDS011;9854;50.968;4.168;2024-01-15T11:55:41;9.30;;;2.80;;
19436;SDS011;9854;50.968;4.168;2024-01-15T11:58:13;7.23;;;2.37;;
19436;SDS011;9854;50.968;4.168;2024-01-15T12:00:47;11.37;;;3.40;;
19436;SDS011;9854;50.968;4.168;2024-01-15T12:03:17;15.33;;;2.93;;
19436;SDS011;9854;50.968;4.168;2024-01-15T12:05:45;13.60;;;2.95;;
19436;SDS011;9854;50.968;4.168;2024-01-15T12:08:11;13.27;;;2.50;;
19436;SDS011;9854;50.968;4.168;2024-01-15T12:10:40;8.77;;;3.10;;
19436;SDS011;9854;50.968;4.168;2024-01-15T12:15:41;11.07;;;2.60;;
19436;SDS011;9854;50.968;4.168;2024-01-15T12:18:10;14.43;;;2.83;;
19436;SDS011;9854;50.968;4.168;2024-01-15T12:20:43;8.83;;;2.17;;
19436;SDS011;9854;50.968;4.168;2024-01-15T12:23:11;12.30;;;2.43;;
19436;SDS011;9854;50.968;4.168;2024-01-15T12:25:38;11.23;;;2.70;;
19436;SDS011;9854;50.968;4.168;2024-01-15T12:28:05;11.03;;;2.50;;
19436;SDS011;9854;50.968;4.168;2024-01-15T12:30:32;8.17;;;2.30;;
19436;SDS011;9854;50.968;4.168;2024-01-15T12:33:05;13.70;;;3.03;;
19436;SDS011;9854;50.968;4.168;2024-01-15T12:35:36;14.27;;;2.50;;
19436;SDS011;9854;50.968;4.168;2024-01-15T12:38:02;9.30;;;2.80;;
19436;SDS011;9854;50.968;4.168;2024-01-15T12:40:28;9.50;;;2.37;;
19436;SDS011;9854;50.968;4.168;2024-01-15T12:42:54;13.00;;;2.70;;
19436;SDS011;9854;50.968;4.168;2024-01-15T12:45:20;12.07;;;2.50;;
19436;SDS011;9854;50.968;4.168;2024-01-15T12:47:46;11.20;;;2.20;;
19436;SDS011;9854;50.968;4.168;2024-01-15T12:50:12;11.87;;;2.40;;
19436;SDS011;9854;50.968;4.168;2024-01-15T12:52:41;37.73;;;5.40;;
19436;SDS011;9854;50.968;4.168;2024-01-15T12:55:09;15.90;;;3.07;;
19436;SDS011;9854;50.968;4.168;2024-01-15T12:57:37;11.83;;;2.80;;
19436;SDS011;9854;50.968;4.168;2024-01-15T13:00:03;13.63;;;2.53;;
19436;SDS011;9854;50.968;4.168;2024-01-15T13:02:39;9.83;;;2.47;;
19436;SDS011;9854;50.968;4.168;2024-01-15T13:05:07;18.87;;;2.37;;
19436;SDS011;9854;50.968;4.168;2024-01-15T13:07:34;12.07;;;2.67;;
19436;SDS011;9854;50.968;4.168;2024-01-15T13:10:00;12.53;;;2.80;;
19436;SDS011;9854;50.968;4.168;2024-01-15T13:12:25;13.47;;;2.50;;
19436;SDS011;9854;50.968;4.168;2024-01-15T13:14:51;12.10;;;2.17;;
19436;SDS011;9854;50.968;4.168;2024-01-15T13:17:17;7.70;;;2.60;;
19436;SDS011;9854;50.968;4.168;2024-01-15T13:19:44;23.37;;;2.73;;
19436;SDS011;9854;50.968;4.168;2024-01-15T13:22:10;13.17;;;2.30;;
19436;SDS011;9854;50.968;4.168;2024-01-15T13:24:38;12.97;;;2.10;;
19436;SDS011;9854;50.968;4.168;2024-01-15T13:27:07;19.27;;;3.27;;
19436;SDS011;9854;50.968;4.168;2024-01-15T13:29:35;10.97;;;2.33;;
19436;SDS011;9854;50.968;4.168;2024-01-15T13:32:03;9.87;;;2.40;;
19436;SDS011;9854;50.968;4.168;2024-01-15T13:34:30;9.37;;;1.93;;
19436;SDS011;9854;50.968;4.168;2024-01-15T13:36:55;14.90;;;2.93;;
19436;SDS011;9854;50.968;4.168;2024-01-15T13:39:22;23.10;;;3.17;;
19436;SDS011;9854;50.968;4.168;2024-01-15T13:41:48;14.53;;;2.70;;
19436;SDS011;9854;50.968;4.168;2024-01-15T13:44:14;11.87;;;1.90;;
19436;SDS011;9854;50.968;4.168;2024-01-15T13:46:40;12.30;;;2.60;;
19436;SDS011;9854;50.968;4.168;2024-01-15T13:49:06;6.57;;;1.70;;
19436;SDS011;9854;50.968;4.168;2024-01-15T13:51:34;5.60;;;1.60;;
19436;SDS011;9854;50.968;4.168;2024-01-15T13:54:00;7.93;;;1.93;;
19436;SDS011;9854;50.968;4.168;2024-01-15T13:56:26;6.23;;;2.43;;
19436;SDS011;9854;50.968;4.168;2024-01-15T13:58:56;10.33;;;1.50;;
19436;SDS011;9854;50.968;4.168;2024-01-15T14:01:25;8.53;;;1.77;;
19436;SDS011;9854;50.968;4.168;2024-01-15T14:03:50;4.10;;;1.60;;
19436;SDS011;9854;50.968;4.168;2024-01-15T14:06:16;9.20;;;2.10;;
19436;SDS011;9854;50.968;4.168;2024-01-15T14:08:44;5.80;;;1.87;;
19436;SDS011;9854;50.968;4.168;2024-01-15T14:11:12;8.27;;;1.70;;
19436;SDS011;9854;50.968;4.168;2024-01-15T14:13:40;8.10;;;1.87;;
19436;SDS011;9854;50.968;4.168;2024-01-15T14:16:05;7.63;;;2.13;;
19436;SDS011;9854;50.968;4.168;2024-01-15T14:18:34;3.73;;;1.70;;
19436;SDS011;9854;50.968;4.168;2024-01-15T14:21:00;9.20;;;1.90;;
19436;SDS011;9854;50.968;4.168;2024-01-15T14:23:25;7.70;;;2.00;;
19436;SDS011;9854;50.968;4.168;2024-01-15T14:25:53;9.23;;;2.77;;
19436;SDS011;9854;50.968;4.168;2024-01-15T14:28:21;9.20;;;2.80;;
19436;SDS011;9854;50.968;4.168;2024-01-15T14:30:48;11.03;;;2.23;;
19436;SDS011;9854;50.968;4.168;2024-01-15T14:33:14;4.27;;;1.77;;
19436;SDS011;9854;50.968;4.168;2024-01-15T14:35:39;16.03;;;2.17;;
19436;SDS011;9854;50.968;4.168;2024-01-15T14:38:05;8.07;;;2.43;;
19436;SDS011;9854;50.968;4.168;2024-01-15T14:40:32;8.73;;;2.30;;
19436;SDS011;9854;50.968;4.168;2024-01-15T14:42:59;6.30;;;1.80;;
19436;SDS011;9854;50.968;4.168;2024-01-15T14:45:24;4.20;;;1.73;;
19436;SDS011;9854;50.968;4.168;2024-01-15T14:47:52;6.93;;;1.70;;
19436;SDS011;9854;50.968;4.168;2024-01-15T14:50:18;6.23;;;1.17;;
19436;SDS011;9854;50.968;4.168;2024-01-15T14:52:46;5.60;;;1.47;;
19436;SDS011;9854;50.968;4.168;2024-01-15T14:55:12;4.43;;;1.50;;
19436;SDS011;9854;50.968;4.168;2024-01-15T14:57:40;5.70;;;1.53;;
19436;SDS011;9854;50.968;4.168;2024-01-15T15:00:06;5.63;;;1.53;;
19436;SDS011;9854;50.968;4.168;2024-01-15T15:02:34;8.63;;;1.80;;
19436;SDS011;9854;50.968;4.168;2024-01-15T15:05:03;5.53;;;1.43;;
19436;SDS011;9854;50.968;4.168;2024-01-15T15:07:31;6.80;;;1.70;;